Articles Comments Reads Score Date Action
Buying The Building But Leasing The Land 4 743 0 2004-02-26
Forming An LLC In AZ 3 928 0 2004-02-24
How Is Commercial Property Wholesaling? 1 575 0 2004-02-24
Acapulco, Mex Commercial Property 1 796 0 2004-02-23
Financing Question On Commercial Property 2 790 0 2004-02-09
Need Financial Ratios 2 632 0 2004-02-07
Cap Rates 8 1100 0 2004-02-05
Is Getting Zoning Changed Difficult In SoCal? 7 823 0 2004-02-23
Zoning Issue 2 894 0 2004-02-16
Residential / Office Area Zoning Question. 8 1221 0 2004-02-12
Enviromental Audit For Commercial Building 1 908 0 2004-02-09
Big Business! 2 1000 0 2004-02-24
Help Needed...What Would You Do? 11 974 0 2004-02-23
How Much Do I Charge??? 2 729 0 2004-02-23
Storage Uses For Former Gas Station Parcel 1 758 0 2004-02-23
What's A Vacant Gas Station Good For??? 8 1082 0 2004-02-15
Need Advice Office Building Purchase 3 1214 0 2004-02-07
Self Directed IRA 12 2724 0 2004-02-06
Investing In Storage Spaces And/or Parking Spaces 10 1092 0 2004-02-05
Need Help With A Convience Store Purchase - What Would You Do?? 4 953 0 2004-02-17
Commercial Retail Developing 1 930 0 2004-02-05
Opinion Based Forum On Lenders? 1 187 0 2004-02-29
The Same People? 3 196 0 2004-02-26
How Can I Edit An Obnoxious Reply In Legal Forum? 1 170 0 2004-02-26
WHAT IS THIS ABOUT 0 176 0 2004-02-26
I Don't Want To Get Involved So I'll Ask You Guys 8 205 0 2004-02-24
Duplicate Post 0 140 0 2004-02-23
Delete 0 149 0 2004-02-22
Davese...what Do You Make Of Him? 1 168 0 2004-02-20
I Think It's Time 0 179 0 2004-02-20
What Do You Think, Mods? 5 266 0 2004-02-20
A Board Hustler? 1 186 0 2004-02-20
Need Opinions On This Post 3 232 0 2004-02-16
THis Should Be Deleted 1 184 0 2004-02-16
Why Should This Be Deleted Or Modified? 1 181 0 2004-02-15
How Long Is A Prison Sentence? 0 159 0 2004-02-14
Blantant Advertising, Collarcityauctions 0 223 0 2004-02-13
Is This A Board Hustling? 1 210 0 2004-02-12
First Stages 3 185 0 2004-02-11
Your Opinion On This Post. 5 254 0 2004-02-10
Here's Another One, John 3 187 0 2004-02-09
Creative Martketing Idea. 4 189 0 2004-02-09
Raj Control Needed 3 178 0 2004-02-07
What Do You Moderators Think? 4 191 0 2004-02-07
Whole Thread Is An Ad 0 172 0 2004-02-06
Wrong Fourm 0 173 0 2004-02-06
Hustler 1 177 0 2004-02-06
Tough Forum To Handle. 1 230 0 2004-02-05
Advertising 2 257 0 2004-02-05
Many Ads 3 281 0 2004-02-03
Can A Small Inheritance Really Go A Long Way? 1 753 0 2004-02-29
How To Get "permission" To Work With Bank 6 856 0 2004-02-28
Auction In 10 Days 2 836 0 2004-02-28
IRS Lien 2 841 0 2004-02-27
Deficiency Judgement Taxation 1 499 0 2004-02-27
Protection 1 577 0 2004-02-27
What's Realistic On A Short Sale Deal?????? 7 910 0 2004-02-27
Money To Seller 2 698 0 2004-02-26
CBA's 1 839 0 2004-02-26
CMA's 3 695 0 2004-02-26
SS And Increasing Prom. Note F/u 7 612 0 2004-02-26
Where's My Package??!!!! 4 823 0 2004-02-26
BPO 9 1012 0 2004-02-26
Should Owner Attend Hearings 0 535 0 2004-02-25
Does Seller Have To Occupy The Property 5 690 0 2004-02-25
Short Sale Success Story 2 826 0 2004-02-25
How Do I Delay An Auction 3 821 0 2004-02-25
Negotiating With Junior Lien Holders 0 756 0 2004-02-25
What Does It Cost Bank To Foreclose? 1 881 0 2004-02-24
Short Issue, Short Question???????? 17 2059 0 2004-02-24
Looking For A Good Foundation. 4 792 0 2004-02-23
** HELP ** Stopping The Sale By Claiming Failure To Notify 3 735 0 2004-02-23
3 Quick SS Questions 1 679 0 2004-02-23
Information/Advise Please 8 912 0 2004-02-23
Advice On My First Short, Please... 4 716 0 2004-02-23
Questions On Short Sale Package 10 945 0 2004-02-22
CMAs How Much Is That Foreclosure Worth? 4 1046 0 2004-02-22
Negotiate Out Lender Request For A Listing Agreement? 3 657 0 2004-02-21
15 For 30....what Is This?? 15 1808 0 2004-02-20
Quick Response To Short Sale 3 629 0 2004-02-20
Thank You!!! 0 586 0 2004-02-20
Form 2 723 0 2004-02-19
Need Help Understanding This One 0 838 0 2004-02-19
Your Biggest "watch Out For....." 5 815 0 2004-02-19
Has Anyone Had Any Experience In Dealing With The IRS? 0 680 0 2004-02-19
Short Sale Question 7 963 0 2004-02-19
EEEK!! Short Sale Delemna 7 746 0 2004-02-19
Short Sale Then Sign A Purchase Contract Then Flip? 3 775 0 2004-02-19
How Much Of A Discount??? 1 711 0 2004-02-18
Quality Short Sale Package 3 699 0 2004-02-18
Ch 13 Bankruptcy Short Sale 6 806 0 2004-02-18
Short Sales That Aren't Short Enough 11 1089 0 2004-02-18
Short Sale And PMI 2 760 0 2004-02-18
Short Sale From Owner Easier Than From Bank? 8 724 0 2004-02-18
BPO Questions 4 751 0 2004-02-17
What A Bank Wants To See....... 2 659 0 2004-02-17
Short Sale Committment? 2 739 0 2004-02-17
What Did I Do Wrong & How Do I Fix IT? 11 1176 0 2004-02-16
Was I Told Wrong 2 557 0 2004-02-16
Short Sale Bid Advice / Experience 1 544 0 2004-02-16
Where Are Short Sales Going? 8 839 0 2004-02-16
Short Sales On Pretty Houses 1 687 0 2004-02-16
Short Sale With Wells Fargo????? 5 842 0 2004-02-16
Does This Have Good Short-Sale Potential? 9 643 0 2004-02-16
Title Search Before Closing? 2 702 0 2004-02-16
Favorite Lenders To Short Sale With 10 1205 0 2004-02-16
Problem With Seller's Brother 13 622 0 2004-02-16
How Will This Look? 4 721 0 2004-02-15
Short Sale Question? 4 659 0 2004-02-15
Thinking Outside The Box.. 8 1147 0 2004-02-15
Recording The Deed BEFORE Closing 1 573 0 2004-02-14
How Long Does A SS Usually Take? 1 647 0 2004-02-14
Hud-1/Settlement Statement 7 1115 0 2004-02-14
How To Find Short Sale Deals 2 779 0 2004-02-14
Persistence Paid Off -Score= Countrywide-1 Seller-2 Buyer-$5000.00? 1 908 0 2004-02-13
Short Sale In 2 Weeks 4 748 0 2004-02-13
Would Someone List The Steps Of Proceeding With A Short Sale Please? 3 878 0 2004-02-13
Phone Number For Green Tree Mortgage Service 1 835 0 2004-02-12
Questions For SSP 1 599 0 2004-02-12
Condition Of House For Short Sale? 2 601 0 2004-02-12
Can I Short This? 1 797 0 2004-02-11
Short Sale Assistance Needed 6 1010 0 2004-02-11
Homecoming Financial Contact Info 0 1477 0 2004-02-11
Countrywide's Dragging Their Feet - Help! 7 960 0 2004-02-11
Closing In A Week!! 6 832 0 2004-02-11
Looking At A Short Sale 2 659 0 2004-02-11
My First Short Sale ( Hopefully ) 2 647 0 2004-02-11
Simultaneous Closing Strategies??? 12 1113 0 2004-02-11
Ameriquest 1 833 0 2004-02-10
SSP- 10K Promissary Note??????? 2 574 0 2004-02-10
Short Sale On 2nd In Bankruptcy? 2 639 0 2004-02-10
Need Good Attorney In Chicagoland 0 640 0 2004-02-09
Basic (hopefully) Question - Sub-to & Short Sale HELP? 5 806 0 2004-02-09
What Exactly Is A Short Sale 3 740 0 2004-02-09
Short Sale With Equity 4 852 0 2004-02-09
Short Sale-quit Claim Deed? 2 785 0 2004-02-09
2nd Is Foreclosing 1st Isn't Yet? 5 797 0 2004-02-08
Can This Be Done When Attempting A Short? 1 577 0 2004-02-08
HELP!! Owners Will Not Cooperate!!!!!! 3 656 0 2004-02-07
A Short Sale Disaster - My First Short Sale 12 2210 0 2004-02-07
FHA Short Sale - Vacant House: HELP ! ! ! 5 835 0 2004-02-07
Short Sale Gone Wrong 7 1132 0 2004-02-07
Getting The DEED... 5 925 0 2004-02-07
Short Not Accepted 14 1256 0 2004-02-07
Advice & Tips On VA Short 0 554 0 2004-02-07
Bank Won't Stop Sale, Any Suggestions? 1 660 0 2004-02-06
Principal Residential Mortgage Loss Mitigation Numbers 0 642 0 2004-02-06
Even If You Do Everything Right... 3 633 0 2004-02-06
Short Sale Denied/Filed BK, What Now? 5 835 0 2004-02-05
Short Sale On House In Chapter 13 3 762 0 2004-02-04
Purchase Note & Trust Deed -vs- Short Sale 1 653 0 2004-02-03
ShortSalePackaging 1 695 0 2004-02-03
Question About TCI's Short Sale E-Books 2 727 0 2004-02-03
QUESTION ABOUT SHORT SALE PROCEDURE 6 943 0 2004-02-03
Final Steps Of The Short Sale 11 1319 0 2004-02-03
Lenders Required 0 650 0 2004-02-03
Short Sale Help??? 1 630 0 2004-02-02
Land Contract 1 587 0 2004-02-02
1st And 2nd By Litton, The 1st Is Foreclosing, Ideas? 4 908 0 2004-02-02
How Long Should I Allow To Do A Short? 3 696 0 2004-02-02
Short Sale Procedure 5 858 0 2004-02-02
Back Taxes On Short Offer 7 656 0 2004-02-02
Purchase Agreement Clauses 1 795 0 2004-02-01
Who Offers Best Subject To Package? 21 3184 0 2004-02-29
Anyone Knows Of Title Company -- Houston, Tx 1 521 0 2004-02-28
California - Subject To Forms Needed 4 970 0 2004-02-27
Sub2 And P&S - Fundamental Question 2 735 0 2004-02-27
Home Warranty ??? 7 831 0 2004-02-26
Sub2 Not For Begginners??? 6 1081 0 2004-02-26
Subject 2/DOS Question 4 646 0 2004-02-26
Selling Subject To Deal With A Wrap Around Mortgage Deed 4 861 0 2004-02-25
Subject 2 Or Wrap 0 589 0 2004-02-25
Second Mortgage Question 2 1406 0 2004-02-25
SELLING SUBJ TO??? 2 1083 0 2004-02-25
Qualified Intermediary 1 644 0 2004-02-25
Tricky SubTo Deal? Need Creative Solution 0 559 0 2004-02-25
John Locke Sub 2 Manual 9 1802 0 2004-02-24
Now What? 0 941 0 2004-02-24
Ok All I Just Ordered The Locke Sub 2 Manual 0 683 0 2004-02-24
Sub To...for Own Use (owner Occupied) 5 724 0 2004-02-24
Subject To's, Trusts, Gurus And Laws In NY 1 568 0 2004-02-24
Sub To Re-fi On A Manufactured Home? 0 540 0 2004-02-23
Johns Sub 2 Course 0 758 0 2004-02-23
First Time Buyer 1 553 0 2004-02-23
Possible Subject To Deal 6 879 0 2004-02-23
Is 'Sub-To' For The Newbie Investor?? 7 956 0 2004-02-23
Buy SubTo, Give Cash Back To Seller After Refi 4 598 0 2004-02-23
Liens And Wraparound Mortgage 0 723 0 2004-02-23
Due-On-Sale Clause 2 766 0 2004-02-22
Advice Needed Quickly! Please!! 16 1495 0 2004-02-22
How To Avoid Due On Sale Clause W/seller Financing? 8 915 0 2004-02-21
Seasoning And SubTo 2 672 0 2004-02-21
Can Anyone Tell Me If This Will Work 2 601 0 2004-02-21
Getting A New Buyer... 8 1005 0 2004-02-20
Sub-To From Investment Co? 8 793 0 2004-02-19
Possible 1st Deal, Please Evaluate 7 941 0 2004-02-19
Do You Have More Leverage In A Subject-to Deal If You Offer To Re-fi ASAP? 7 1091 0 2004-02-19
Setting Up A Trust 1 683 0 2004-02-19
Complications If RE Licensed 5 774 0 2004-02-19
I Know I'm Not The Only One.... 22 1680 0 2004-02-18
Finally Found One With Equity. 1 687 0 2004-02-18
Recoding Cloud Or Interest In Title - Who Has Done It? 6 658 0 2004-02-18
CFD Vs Subject To 6 632 0 2004-02-18
Using PoA To Sign Yourself Over The Deed? 5 744 0 2004-02-18
Number 2 (or 3) Subto Seller Objection 8 784 0 2004-02-17
Due On Sale And A Wrap.need Help! 15 1829 0 2004-02-16
Looking For Contract Or Addendum... 2 673 0 2004-02-16
3 Offers 2 639 0 2004-02-16
Using A Family Trust To Hide From Due On Sale. Where's The Money? 3 724 0 2004-02-15
Tomorrow Is My Last Day At Work......... 12 1194 0 2004-02-14
Can Buyer Sell If Buying On CFD 4 612 0 2004-02-14
Hard Ball Betrween Sellar And Buyer 15 1582 0 2004-02-13
Protecting Seller's Debt/Equity Ratio 0 516 0 2004-02-13
Sub2 Contract 1 1068 0 2004-02-13
3 Questions For Pro's Only 7 994 0 2004-02-13
L/O Vs. CFD 2 766 0 2004-02-12
Please Take A Look At This Deal And Comment. 19 2199 0 2004-02-12
What Can I Tell The Seller? 3 912 0 2004-02-12
Title 1 590 0 2004-02-12
What Will Happen... 3 690 0 2004-02-12
Newbie Looking For AZ REI Group! 2 704 0 2004-02-11
Calling On Ads 2 638 0 2004-02-11
Closing Costs, What Part Of The Process Can I Do Myself? 9 972 0 2004-02-11
How To Understand A Deed? 4 645 0 2004-02-11
John Locke's Course 6 1256 0 2004-02-11
Necessary Forms To Close Deals 13 1121 0 2004-02-11
Sub2 Joint Venture 0 660 0 2004-02-11
SUB TO Deal ??? 3 657 0 2004-02-10
RE Agent In Sub2 Deal 3 741 0 2004-02-10
Buying A House Sub2 And The Risk Of Foreclosure 4 645 0 2004-02-10
LSC Suggestions? 0 697 0 2004-02-10
John Locke, Land Trust? 7 935 0 2004-02-10
Purchase Option 1 612 0 2004-02-10
I Hear A Lot About John's Sub To . . . 1 621 0 2004-02-10
Thoughts On A Property 3 538 0 2004-02-10
SUB2 - Why L/O And Not Retail 4 634 0 2004-02-09
Sold That TH! 6 682 0 2004-02-09
How To Catagorize 4 529 0 2004-02-09
Curious George 5 769 0 2004-02-08
Subject To 1 605 0 2004-02-08
FHA SUB2 Deal 4 825 0 2004-02-08
Can My Buyer Do This? 17 1872 0 2004-02-07
Transferring Trust Deed Into Family Trust 3 703 0 2004-02-07
Purchasing Properties In NY 'subject To' 1 586 0 2004-02-07
Sold My First SubTo Property 12 1128 0 2004-02-06
Refinancing A Sub 2 6 793 0 2004-02-06
Buying And Selling In Multiple States 2 655 0 2004-02-06
Sub2 Calculator 1 596 0 2004-02-06
Newbie Questions - Getting Started 3 703 0 2004-02-06
Iv'e Taken The Plunge - I Think! 0 625 0 2004-02-05
Homeowner's Insurance 2 809 0 2004-02-05
Subject 2..Need Help Pls. 4 591 0 2004-02-05
Title Insurance 7 841 0 2004-02-05
Additional Clause In Subto Agreements? 14 954 0 2004-02-05
About Getting Tenants Through Newspaper Ads....... 1 828 0 2004-02-04
Help With Subject To Deals 9 1195 0 2004-02-04
Sellers Protection 4 556 0 2004-02-04
My First Appointment, Help! 4 715 0 2004-02-04
Best Investment? 0 579 0 2004-02-04
Investment Referral Companies 1 599 0 2004-02-04
Couple Questions 4 531 0 2004-02-03
Postcard/Letter Mailings 26 3326 0 2004-02-03
Benefits To The Seller 6 729 0 2004-02-03
Got My Taxes Done. THANKS John Locke 11 832 0 2004-02-02
Sub2 Closing Costs 10 698 0 2004-02-02
Turst Document 2 547 0 2004-02-02
John, William, Do They Make Next Months Payment? 5 879 0 2004-02-02
Subject To 4 715 0 2004-02-01
Analyzing Neighborhoods/cities To Invest In 0 506 0 2004-02-29
Step By Step Instructions For A Newbie (AZ) 6 1132 0 2004-02-29
Incredibly Low Offer 1 515 0 2004-02-29
Using Liability To Buy Fixer Up ? 2 495 0 2004-02-29
Buying Out A Family Member - Please Help 2 523 0 2004-02-29
Interesting Story On Real Estate Bubble 4 991 0 2004-02-29
FMV - REO 1 662 0 2004-02-29
First Deal Question 5 915 0 2004-02-29
REO Or Wholesaler? 0 542 0 2004-02-29
Renting A Property Bought With A Non-investment Mortgage 0 576 0 2004-02-29
Like A Deer Caught In Headlights 1 520 0 2004-02-29
Would This Work For Someone Who Needs Cash, But Doesn't Want To Sell? 0 523 0 2004-02-29
Did I Find A Red Flag? 2 632 0 2004-02-29
Nervous........... 3 741 0 2004-02-29
Short Sale-Illinois-Big $$ 0 561 0 2004-02-29
Bird Dogging Basics! 0 614 0 2004-02-29
Tax Lein Information- OR / WA 1 618 0 2004-02-28
Put Your Thinking Caps On..... Problem For You.. 6 814 0 2004-02-28
So, How Would You Do This? 2 548 0 2004-02-28
Home Warranties? 2 691 0 2004-02-28
What Is The Best Way To Finance This Deal? 0 585 0 2004-02-27
REI Plans & Goals 3 626 0 2004-02-27
Inspection Problem 2 678 0 2004-02-27
Agreement For Deed? 3 496 0 2004-02-27
Currently Closing On A Condo But Want To Purchase A 2-3 Flat Within 1 Year 0 497 0 2004-02-27
First Investment Purchase ..What Addendums Clauses To Use? 2 640 0 2004-02-27
First Investment Purchase - NEED HELP!!! 10 914 0 2004-02-27
Finding Someone 0 460 0 2004-02-27
How Can I Make This A "0" Down Deal 9 868 0 2004-02-27
How Do You Interview An Accountant? 1 553 0 2004-02-27
Florida Bird Dogging Question 5 1205 0 2004-02-27
New To This......help 2 754 0 2004-02-27
Can Someone Explain The HUD Process? 4 788 0 2004-02-27
Potential Investment -Cash Flow Vs. Appreciation 1 824 0 2004-02-26
Sub To 2 679 0 2004-02-26
Need To Get Creative With The Closings Costs? Please Help! 6 709 0 2004-02-26
Need Help Negotiating On This Multi-family 0 525 0 2004-02-26
Cashing Out 2-3 Properties / Year 16 1868 0 2004-02-26
Any CPAs In The Atlanta Area With Strong REI Skills? 2 971 0 2004-02-26
Regarding That Owner-occupied Post... 4 626 0 2004-02-26
New Jersey Property Or Owner Info??? 0 516 0 2004-02-26
Tax Question For Out-of-state Property Owners 0 656 0 2004-02-26
Potential Deal HELP! 2 562 0 2004-02-26
Real Estate Licensing 4 916 0 2004-02-26
Should I Work A Deal With A Contractor? 2 602 0 2004-02-26
My First Deal..closed! 4 773 0 2004-02-26
Real Estate Problem..buyers From Hell...need Help 21 2093 0 2004-02-26
Want To Get That First Property 0 579 0 2004-02-26
Dont Let News Of The Market Frighten You 1 609 0 2004-02-26
Identifying Trends 8 871 0 2004-02-26
Help With Jumping Through Owner-Occupied Financing Hoops... 1 662 0 2004-02-26
How Can I Get Started In This Ridiculous Market? 4 818 0 2004-02-26
Buying & Selling Multi-family Income Properties 3 1095 0 2004-02-26
Double Escrows 0 682 0 2004-02-25
Best Use Of New Condo? 0 550 0 2004-02-25
Good Profit Potential - Now What???? 6 697 0 2004-02-25
How Do You Find Your Leads? 6 952 0 2004-02-25
Leasing Now - Want To Buy The Building - Advice? 0 571 0 2004-02-25
Must You Deal With Listing Agent? 4 745 0 2004-02-25
Using Equity To Invest 2 648 0 2004-02-25
First Timer 3 655 0 2004-02-25
Newbie Needs Help!!!! 2 643 0 2004-02-25
How Do You Make Sure The Mortgage Is Paid? 1 602 0 2004-02-25
What Comes Free? 5 660 0 2004-02-25
LAND CONTRACT 4 968 0 2004-02-25
Help Me..should I Rent To Own? 2 703 0 2004-02-25
Security Deed State? 3 645 0 2004-02-24
Feedback Request 2 710 0 2004-02-24
A Topic For A Good Article... 0 587 0 2004-02-24
My Comingling Problem 7 908 0 2004-02-24
Mobil Home..Is This A Good Deal? 10 1437 0 2004-02-24
Birddog 2 792 0 2004-02-24
Hey Bird Dog 0 654 0 2004-02-24
Prepay Penalties 1 594 0 2004-02-24
REI 0 400 0 2004-02-24
Advice On Townhomes In Poconos 0 595 0 2004-02-24
Shoul I Or Should I Not? 2 548 0 2004-02-24
Put Fake Ad In Paper Now What!! 4 712 0 2004-02-24
Annual Rent Is $40K 0 531 0 2004-02-24
No Money For Commercial? 6 724 0 2004-02-24
Far 8???? 0 451 0 2004-02-24
Next Step For Newbie? 3 865 0 2004-02-24
CASINO Effecting Housing Prices??? 3 824 0 2004-02-24
Will Builders Owner Finance? 1 695 0 2004-02-24
Thank You To All 0 552 0 2004-02-24
Need Advice - Agent/seller Dilemma 7 670 0 2004-02-24
Need $100 Worth Or Resources From This Site To Retain Membership 2 870 0 2004-02-23
Is Birddogging For The Scared Or Fearless? 7 779 0 2004-02-23
I Had Put This Post In Lease Options But Didnt Get Any Feedback Or Help 0 602 0 2004-02-23
Realtytrac 2 740 0 2004-02-23
Questions To Pre Qualify Seller, Property 2 564 0 2004-02-23
Putting Down The Books And Stepping Out? 2 619 0 2004-02-23
You Don't Need Money To Do Deals!!!!! 28 3272 0 2004-02-23
How To Find Owner Of Vacant Property 4 959 0 2004-02-23
Diamond Farming 2 811 0 2004-02-23
Tenant Screening 0 681 0 2004-02-23
Commercial Property For A Non Profit 1 495 0 2004-02-23
CAN ANYONE HELP? 5 726 0 2004-02-23
Different Types Of Deeds 1 567 0 2004-02-23
Runnig The Numbers-seing If You Got A Good Deal 8 710 0 2004-02-22
Is This Financing Possible? 5 715 0 2004-02-22
Advice On Educational And Online Services 10 816 0 2004-02-22
Need Advice 1 445 0 2004-02-22
Forum Question Regarding Recruiting. 10 1063 0 2004-02-22
Anyone Knows Any Good Mentors, Seminars In MI? 0 583 0 2004-02-22
Financing Your First Deal 2 771 0 2004-02-22
Got Lots Of Property In Cinci.... 2 586 0 2004-02-22
Sandwich Lease Or Not? 0 485 0 2004-02-22
Is Beachfront Invest Good Idea? 6 846 0 2004-02-22
NEED HELP....QUICK 4 667 0 2004-02-21
New England 1 973 0 2004-02-21
Out Of State REI 1 537 0 2004-02-21
1099s Tax Question 1 610 0 2004-02-21
I Need Some Advice-please 1 697 0 2004-02-20
Birddog Information Pack? 1 729 0 2004-02-20
Can't Close The Deal 15 1455 0 2004-02-20
Escrow? What The Crap? 5 751 0 2004-02-20
Title Companies 7 705 0 2004-02-20
I Need A Mortgage Form 3 763 0 2004-02-20
FMV? 1 747 0 2004-02-20
A Good Start? 2 659 0 2004-02-20
William Bronchick 3 780 0 2004-02-20
Looking For Very Good Tax Accountant In Pinellas/Pasco Counties 0 636 0 2004-02-20
Bird Dog Fee Or Agreement! 0 962 0 2004-02-19
Another NEWBIE Needs Help!! 3 598 0 2004-02-19
Lis Pendens In Cook County, Illinois 2 881 0 2004-02-19
Getting Into The Game In SW Florida! 5 767 0 2004-02-19
Looking For Reputable Mortgage Company 2 563 0 2004-02-19
Looking For Info/guidance On Possible Deal 4 774 0 2004-02-19
Advice Needed For My First Possible Deal 0 475 0 2004-02-19
Getting Started 1 638 0 2004-02-19
Tax Law Advice 0 458 0 2004-02-19
Ballpark Birddog Fee For Unsure Investor 7 723 0 2004-02-19
No Luck! 2 704 0 2004-02-19
Lufos Aka Lucius 24 2252 0 2004-02-19
Calls From Tire Kickers 3 751 0 2004-02-19
Do I Need To Close To Flip A New House 3 577 0 2004-02-19
Accounting And Tax Software 3 629 0 2004-02-18
Double Close Help 1 566 0 2004-02-18
Have Large Buyers List Now What ? 0 525 0 2004-02-18
Is Getting A Real Estate License A Good Idea? 19 2402 0 2004-02-18
How To Structure Deal?? 0 704 0 2004-02-18
Costs To Foreclose? 2 663 0 2004-02-18
Birding Dogging Best Way To Advertise Services? 4 818 0 2004-02-18
Hud-owner Occupant 6 860 0 2004-02-18
Kinda Silly And Not Important...but Curious 8 1105 0 2004-02-18
Anyone Familar With REO World Or Asset Managment Company? 0 563 0 2004-02-18
Quality Short Sale Package 0 449 0 2004-02-18
Ideas Please. 5 756 0 2004-02-18
I Need A Mentor 1 621 0 2004-02-18
"California Dreamin" 7 667 0 2004-02-17
Finding An Accountant 2 540 0 2004-02-17
Vacant Property 2 513 0 2004-02-17
Need Help...what Would You Do??? 7 647 0 2004-02-17
Possible Deal But Have Some Questions....please Help 3 569 0 2004-02-17
Investment Idea But Not Sure If Doable?? 11 1003 0 2004-02-17
Newbie Has REI Terms Questions 2 603 0 2004-02-17
Figure For Approx Market Value Based On Taxes Possible? 0 460 0 2004-02-17
Need Advice On My First Potential Deal 1 553 0 2004-02-17
Buying From FSBO- All Cash Same As Mtg? 0 583 0 2004-02-17
Michigan (Southeast) REI Club? 3 671 0 2004-02-17
Multi Family Semantics 4 681 0 2004-02-17
If Buying A Home Or Condo That's Not Built Yet... 10 787 0 2004-02-17
Agents Not Listing, Only Buying 8 829 0 2004-02-16
Public Records 1 699 0 2004-02-16
Looking For An Old Reply From A Mortgage Investor 5 672 0 2004-02-16
Please Advise On This Possible Deal 0 536 0 2004-02-16
HELP!!!! 8 738 0 2004-02-16
Just Market Value Vs. Fair Market Value? 4 756 0 2004-02-16
Question About Site Membership And About A Program 1 614 0 2004-02-16
First Time Investment Property 2 877 0 2004-02-16
Tech Supp-Can't Find One Of My Questions 0 541 0 2004-02-16
Bird Dog Contract 11 1483 0 2004-02-16
Suggestions To Locate Pvt$ On Lots - Lender Finder No Help 0 550 0 2004-02-15
Distribution Of Profits 0 512 0 2004-02-15
Some Much Info! Where To Start? 1 624 0 2004-02-15
Seems Like A Silly Question 1 549 0 2004-02-15
TAX QUESTION 0 585 0 2004-02-15
What If There Is No Local REI Club?? 2 700 0 2004-02-15
How Could I Pull Of This Great Buy? 6 672 0 2004-02-15
HELP! I'm New And Need A Lot Of Guidance! 22 2157 0 2004-02-14
Pros And Cons To Apt/condo Investing 3 851 0 2004-02-14
Would You Use A Credit Card? 2 610 0 2004-02-14
Bird Dog Contracts 1 819 0 2004-02-14
Investment Question On A Downtown Condo 3 537 0 2004-02-14
How To Get Information On A Boarded Up House? 4 677 0 2004-02-14
~Buying Income Property~ 2 903 0 2004-02-14
SoCal CPA? 0 524 0 2004-02-14
Starting A LLC Or Corp What To Do In The Meantime? 4 717 0 2004-02-14
Getting Tenants 4 585 0 2004-02-13
How Does This Work? 1 514 0 2004-02-13
So I'm Going To Go Look At My First Property Tonight 5 661 0 2004-02-13
Financing For Home In Mexico 0 537 0 2004-02-13
Newbie With Good Leads Looking For Seed Money 0 578 0 2004-02-13
Need Help Getting Started 2 791 0 2004-02-13
Owner Financed Sale Question 2 672 0 2004-02-13
Has Anyone Used A Group Mailer Program? 0 560 0 2004-02-13
I Need And "out" Clause In My Offer 8 628 0 2004-02-13
Should I Sell Out Or Rent Out? 15 1707 0 2004-02-13
Probate? 11 682 0 2004-02-13
Help With Tenant Selection 7 683 0 2004-02-13
Newbie Question On Getting Started 0 530 0 2004-02-13
Financing Expert Needed!!!!!!! 5 657 0 2004-02-13
Stupid Question But Something I Don't Get 2 582 0 2004-02-13
Newbie Needs Help.... 1 595 0 2004-02-13
I'm Pre-approved And Confused... 0 603 0 2004-02-13
Hola! New Guy From Central Illinois... 0 628 0 2004-02-12
Probate Partner 0 471 0 2004-02-12
Help!!! 2 Houses, 1 Deal. Creative Solution? 0 459 0 2004-02-12
New Sheets Student In Houston, TX 1 609 0 2004-02-12
Newbie Help On Materials To Read 1 589 0 2004-02-12
Credit Scores Are Freaky! 6 647 0 2004-02-12
Hard Money Lenders And The Recently Self-Employed 9 882 0 2004-02-12
What Works? 17 1978 0 2004-02-12
Bad Credit And Dreams Of Getting Debt Free And Into Real Estate 10 1491 0 2004-02-11
Do Real Estate Agents Really Help 6 732 0 2004-02-11
Current Steps Of Improvement And Advice To Further Sucess 1 787 0 2004-02-11
How Do You Make Sure You Get Paid For Bird Dogging 3 763 0 2004-02-11
Assigning Contracts???? HELP!!! 5 848 0 2004-02-11
Don't Kill Me But....What Is Bird Dogging??? 15 1524 0 2004-02-11
Newbie Question 2 600 0 2004-02-11
Am I Prepared To Take The Plunge? 5 720 0 2004-02-11
FSBO List 3 545 0 2004-02-11
Where Am I???? 1 570 0 2004-02-11
Rookie Investor Seeking Advice On New York Investing Opportunities 2 662 0 2004-02-11
Difference Between SFH And Multi-Family 5 609 0 2004-02-11
Possible 1st Time Deal - Advice Needed 5 613 0 2004-02-11
Buying Vacant Lots To Rent To Mobile Home Owners. Good Or Bad Idea? 0 689 0 2004-02-11
Little Help 1 516 0 2004-02-11
Buying Rental Property Out Of My Area 9 853 0 2004-02-11
What Is A Bird-Dog Looking For??? I Need Some Reading Material 4 706 0 2004-02-11
Property Locators 1 545 0 2004-02-11
Will Lease Improve Value? 5 705 0 2004-02-11
Too Many Options To Choose From?!? 2 442 0 2004-02-11
I Was Told This Is Illegal. HUH?! 41 2833 0 2004-02-11
Just Starting - Need Tax Lien Advice 5 505 0 2004-02-11
Clubs 0 444 0 2004-02-10
Where Is Best Place To Find Independent Real Estate Investors? 5 732 0 2004-02-09
Hmmmmm. What Should I Do Next? 5 565 0 2004-02-09
Bird Dogging 101 8 1191 0 2004-02-09
Help Renting Units 4 807 0 2004-02-09
What's Better: Lease/option Or Owner Financing? 3 513 0 2004-02-09
Sec 8 Info 10 804 0 2004-02-09
Public Records 2 637 0 2004-02-09
CAP Rate And What Would Be A Good Price On Triplex? 7 608 0 2004-02-09
REI Guru's 5 558 0 2004-02-09
Putting Together A CRE Team 1 580 0 2004-02-09
Making An Offer--when? 2 515 0 2004-02-09
HELP, I Am New At This And Am Confuse On Trustee Sales 4 644 0 2004-02-09
Commercial Property Question 3 428 0 2004-02-08
Bird Dogging.....Why Start Out There? 2 593 0 2004-02-08
Pinellas County ,florida 0 535 0 2004-02-08
Thoughts On A Property 1 473 0 2004-02-08
Thank You Tcinvestor.com 1 555 0 2004-02-07
Wanting To Start Bird Dogging, But No Clubs Or Networking Opportunities 2 683 0 2004-02-07
Bird Dogging 0 587 0 2004-02-07
Life Estate For Sale??? What Is This? 1 472 0 2004-02-07
Frustrated And Don't Know Where To Start 4 880 0 2004-02-07
Found A Motivated Seller...What Are The 1st Questions To Ask? 0 544 0 2004-02-07
Which Road To Take 11 729 0 2004-02-07
Is This Ethical? 5 644 0 2004-02-07
Filing A Memorandum At The Courthouse 1 446 0 2004-02-07
Bird-dogging 1 1033 0 2004-02-07
Help Getting A Good CPA For REI 5 646 0 2004-02-07
Preforeclosure 2 614 0 2004-02-07
Land Contract? 2 455 0 2004-02-06
Purchase Offer 1 652 0 2004-02-06
Looking 4 RE Agent In (North NJ) Area 0 721 0 2004-02-06
Why Bird Dog? 3 559 0 2004-02-06
New And I Live In A Very Profitable Area 1 522 0 2004-02-06
Is This A Good Deal 0 464 0 2004-02-06
Newbie Question 2 554 0 2004-02-06
Want To Introduce Myself And Ask A Few Questions 2 550 0 2004-02-06
Owner Financing Help 1 509 0 2004-02-06
About Top Jump In 1 597 0 2004-02-06
Need Advice On Sellig Myself To Mentors 9 806 0 2004-02-06
REI Clubs 1 589 0 2004-02-06
RE Agent Question 3 535 0 2004-02-06
How In The World Do I Do This? 9 682 0 2004-02-06
"Getting Started In REI" Checklist, Did I Miss Anything? 2 741 0 2004-02-05
Real Estate Website 6 897 0 2004-02-05
Mr. Deeds 0 478 0 2004-02-05
When You Make Offers So Low They Dont Call You Back... 7 702 0 2004-02-05
What To Look For? 0 478 0 2004-02-05
Local Bank REO Departments Aim To Please 0 740 0 2004-02-05
Feedback On First Am Res? 4 473 0 2004-02-05
Best Materials To Begin With 8 740 0 2004-02-05
Getting My Credit Score 7 780 0 2004-02-05
BIRDDOG DESCRIPTION 7 897 0 2004-02-05
Selling Without An Attorny 4 649 0 2004-02-05
Hud Home 1 492 0 2004-02-05
Beach / Resort Rental Property - Any Thoughts? 2 518 0 2004-02-05
Just Curious........ 25 1940 0 2004-02-05
Best Way To Assemble Investor List And Hard Money Lenders 0 629 0 2004-02-05
To LLC Or Not To LLC 4 705 0 2004-02-05
Northwest Florida Bird-dog/REA Looking For Investors... 1 731 0 2004-02-05
REI Club 6 739 0 2004-02-04
Experienced BirdDog Looking For Investors In NC And SW Fl 3 551 0 2004-02-04
Listening To Ya' Lufos 6 587 0 2004-02-04
Property Record Shows No Date Or Purchase Price 11 903 0 2004-02-04
Birddog Article 6 648 0 2004-02-04
Money Lenders 5 568 0 2004-02-04
Is This A Scam? 12 1967 0 2004-02-04
Condo Buyout 0 457 0 2004-02-04
NOTICE OF DEFAULT 2 535 0 2004-02-04
As A Newbie In REI, At What Point Do You Line Up Lenders? 3 628 0 2004-02-04
Help: Trying To Work Out A Financial Base..any Input? 2 546 0 2004-02-04
I Need Friendly Advice! A Thumbnail Sketch! 0 514 0 2004-02-04
WooHoo! Did A Deal...now What? 1 541 0 2004-02-04
Who Wants A Mentor? Not Me! 17 1925 0 2004-02-04
Need Advice 5 702 0 2004-02-04
Unsolicited Bids 0 488 0 2004-02-04
Public Source For Past Sale Prices And Property Info. 6 885 0 2004-02-04
I Am Getting More Confused The More I Read..HELP!! 3 929 0 2004-02-04
Newbie Trying To Get Past The INTIMIDATION Factor! 6 917 0 2004-02-04
Deal Analysis Form 0 509 0 2004-02-04
Where Would I Post This Info? 3 502 0 2004-02-04
Developer Unloading Too Many Properties!!! 6 624 0 2004-02-04
TCI Jail Question... 3 702 0 2004-02-04
Can The Seller Break The Rea Listing Contract? 6 618 0 2004-02-04
Wholesaling/birddog Difference? 0 536 0 2004-02-03
Bird Dog Question 4 774 0 2004-02-03
This Is Why We Check And Double Check. 0 520 0 2004-02-03
New From New York 8 917 0 2004-02-03
Birddog Question 2 677 0 2004-02-03
Illegal Birdogging 4 894 0 2004-02-03
Lenders 0 526 0 2004-02-03
Contract Question 2 594 0 2004-02-03
Information For NOD And NOS 0 554 0 2004-02-03
Moving To Vegas...Need Some Advice And Help! 8 688 0 2004-02-03
Tulsa Birddog 1 530 0 2004-02-03
Here's The Deal. 2 610 0 2004-02-03
Deal Analysis 2 3 515 0 2004-02-03
What To Buy For First Property? 4 627 0 2004-02-03
Rookie Innvestor In Need Of Some Guidance 3 828 0 2004-02-03
Help With Owner Financing, Please! 2 554 0 2004-02-03
HUD Rules In Baltimore City 4 538 0 2004-02-03
Question On Contract 0 524 0 2004-02-02
Contract???? 4 663 0 2004-02-02
Social Security Number On Hud 1 2 538 0 2004-02-02
SHORT SALE WITH HOMEQ 5 2958 0 2004-02-02
Enlightenment On Probate Property 6 616 0 2004-02-02
Do I Stay Licensed Or Pursue Foreclosure Investing Full Time? 9 746 0 2004-02-02
What Can I Charge The Bank To Manage These Houses?? 0 502 0 2004-02-02
Newbie Query About My $$ And What To Do 6 689 0 2004-02-02
Newbie Requires Clarification!! 2 677 0 2004-02-02
Comps????????? 39 3110 0 2004-02-02
Beginner Looking For Good Books 8 625 0 2004-02-02
Lender Issues With Buying And Selling 5 621 0 2004-02-02
"Proof Of Funds Or Prequal Letter" - Is This A Filter? 3 788 0 2004-02-02
Deal Analysis 1 4 543 0 2004-02-02
What If I Don't Have Any Cash? 8 757 0 2004-02-02
Protecting Yourself If You Did Your Own Rehabbing 7 602 0 2004-02-01
Why Are You Guys Not Watching The Super Bowl? 1 501 0 2004-02-01
Thoughts On Getting Started 2 660 0 2004-02-01
Advice On 6 Family 3 813 0 2004-02-29
Need Help Negotiating On This Multi-family 1 617 0 2004-02-26
Second Opinion Re: 5 Unit. 4 723 0 2004-02-26
What Would This Be Worth To You? 5 832 0 2004-02-26
Church For Sale - Possible Multi-family?? 14 1227 0 2004-02-26
Confused About The Numbers 10 912 0 2004-02-26
Need Advice ASAP. 2 546 0 2004-02-25
Estimate Management Requirements 1 823 0 2004-02-25
Neophyte 1 628 0 2004-02-24
Rehab Financing For Multi Unit !! 1 669 0 2004-02-23
Seminar 1 605 0 2004-02-23
What Do You Guys Think About This Deal 1 713 0 2004-02-21
Things Happen For A Reason 6 827 0 2004-02-20
Is This A Good Deal?......HELP 3 501 0 2004-02-20
Any Ideas How I Can Handle This? 8 789 0 2004-02-20
Would Like Some Input On This Deal - Any Insight? 1 671 0 2004-02-19
I Need More Books To Read........ 7 807 0 2004-02-19
Advice On 4family Numbers 7 887 0 2004-02-18
If You Could Start Over Right Now.... 5 944 0 2004-02-18
Advice Requested On Multifamily Purchase 13 1066 0 2004-02-18
Loosing Job, Need Income 11 1176 0 2004-02-17
DEAL WORTH DOING? Lufos ? John Locke? 14 1164 0 2004-02-17
REI Math 3 737 0 2004-02-17
Wholesaling Multi-families 11 869 0 2004-02-16
How To Write Seller Carryback Notes To Be Forgiven? 6 1122 0 2004-02-16
Located Owner Of 2 Buildings, Now What? 5 539 0 2004-02-15
Can't Seem To Purchase My First Property. 2 748 0 2004-02-14
Negotiating W/ The Seller's Agent... 3 604 0 2004-02-14
Multi Family Investing Strategy 10 1068 0 2004-02-14
Do I Need Good Income To Make A Multi Purchase? 12 1392 0 2004-02-12
Lenders And Multifamily 13 1362 0 2004-02-12
Help In Analysis? 11 842 0 2004-02-11
Have I Missed The Market? 21 2376 0 2004-02-10
TAX CREDIT Status Under Review By IRS 0 698 0 2004-02-10
NEED SOFTWARE ADVICE 4 826 0 2004-02-09
Question About Renter Headaches? 2 669 0 2004-02-09
Met With The Seller Today 0 596 0 2004-02-07
Any Opinions On Multi Guru John Dessauer??? 0 553 0 2004-02-06
Starting Up Group Homes 1 575 0 2004-02-06
85% For Multi-family 5 Plus Units, ARMs As Low As 3% 1 1416 0 2004-02-06
22 Unit Building 12 1234 0 2004-02-06
Need Advice On Price Reduction 6 564 0 2004-02-05
Modular Homes 10 1276 0 2004-02-04
What Is NOI? 6 660 0 2004-02-04
Is This A Deal Or A Problem Waiting To Happen? 6 749 0 2004-02-03
Good Formulas For Analyzing Properties... 3 966 0 2004-02-02
Buying First Home 5 614 0 2004-02-02
Which Is Best? 2 485 0 2004-02-01
Financing Multi-famliy 2-4 Units 3 893 0 2004-02-01
Vacant Home Ad 0 591 0 2004-02-28
FSBO - Listing In The MLS 5 828 0 2004-02-27
Business Cards 4 960 0 2004-02-27
Business Cards 12 1493 0 2004-02-26
Marketing To Fed Up Landlords 5 799 0 2004-02-25
How And Where? 0 478 0 2004-02-23
Postcards Software 2 812 0 2004-02-23
Marketing Question, Is It A Good Idea? 1 585 0 2004-02-23
Looking For An Investor Cant Find Out Were To Place An Ad 1 564 0 2004-02-23
Vacant House 6 809 0 2004-02-22
2 Types Of Business Cards 7 1163 0 2004-02-22
Inspection Costs 2 506 0 2004-02-21
How Can I List My Home On The MLS? 3 647 0 2004-02-21
Homes Without Basements? 8 708 0 2004-02-20
Marketing For Private Investors? 6 1027 0 2004-02-18
Demographic Information 2 751 0 2004-02-15
Trying To Buy A House For Cheap How Whould I Do This? 5 996 0 2004-02-13
Marketing??? 2 692 0 2004-02-12
Got Pulled Over Tonight Putting Out Bandit Signs (TX) 10 1196 0 2004-02-11
MARKETING FOR PROBATE PROPERTIES! 1 815 0 2004-02-10
Laws About Signs 2 662 0 2004-02-10
Buying Property At The Courthouse 3 656 0 2004-02-09
Question For Atlanta Investors 0 583 0 2004-02-07
How Is This Idea? 7 672 0 2004-02-06
Section Of Paper To Place "We Buy Houses" Ad 7 914 0 2004-02-06
How To Seal The Deal Without Over Paying !!! 2 629 0 2004-02-05
HELP!!! 2 690 0 2004-02-05
It's All In The Name....... 6 683 0 2004-02-05
Do I Have To Seperate 1 539 0 2004-02-05
Best Way To Market Properties. 6 876 0 2004-02-05
Flyers That Look Like $100 Bills? 18 2889 0 2004-02-05
Contracts And Forms 4 682 0 2004-02-05
Ads For Private Money Or Investors 3 764 0 2004-02-05
Call For Free Report Verbiage 7 588 0 2004-02-05
Newspaper Classifieds Vs. Thrifty Nickle (small, Free, Ad Papers) 10 1255 0 2004-02-05
How Do I Reel This One In? 5 674 0 2004-02-05
Anyone Tried This Ad? 8 1359 0 2004-02-05
"i Buy Pretty Houses" Newspaper Ad 8 873 0 2004-02-05
A Better Suggestion 0 706 0 2004-02-05
Marketing 0 605 0 2004-02-03
Investor Wanted!! 5 938 0 2004-02-02
Paid Collections Bringing Down Score 3 856 0 2004-02-29
Addicted To The Creative Investor? 24 1933 0 2004-02-29
Real Estate Licensing 5 752 0 2004-02-29
Credit Repair $1000??? 8 783 0 2004-02-29
Paying Bills 3 841 0 2004-02-28
Deleting A Derogatory Item 17 2192 0 2004-02-28
Greenspan Speaks! 1 More Reason To Get Involved In RE! 8 719 0 2004-02-27
Credit Counseling Services 14 1184 0 2004-02-24
How Does A Paid Off House Affect Credit If Yours Is Not Very Good? 10 820 0 2004-02-24
Stuck! Need To Reduce Debt 5 896 0 2004-02-23
Cc 2 746 0 2004-02-23
Collection Question 4 685 0 2004-02-23
Starting With Cleaning Up Old Addressess? 8 756 0 2004-02-23
Credit Card Settlement 14 990 0 2004-02-22
BK Of Another Showing Up On Credit?? 4 592 0 2004-02-21
Is There Something I Can Do? 2 501 0 2004-02-21
Need FICO Scores 16 1998 0 2004-02-20
Dave Ramsey 6 755 0 2004-02-18
Credit Challanges 2 778 0 2004-02-17
How Soon Can We Buy A Home After Chapter 7 12 1595 0 2004-02-17
I See The Bank Tommorrow, Your Thoughts 2 587 0 2004-02-16
Question Before Buying A House 4 605 0 2004-02-16
What Is A PLUS Score? 7 746 0 2004-02-16
Quick ? 2 520 0 2004-02-16
Creditor Still Reporting After B/K 8 1043 0 2004-02-16
FICO Score Vs. Interest Rate. 13 858 0 2004-02-16
How Do I Raise A 640 FICO Score To Above 700? 14 2073 0 2004-02-16
Paying Down Debt. Any Suggestions? 13 1181 0 2004-02-15
620 Fico Now A 650 Fico...what Are My Chances? 1 713 0 2004-02-14
What's A Good Credit Score For REI? 8 895 0 2004-02-13
Looking For Advice 0 550 0 2004-02-06
Should This Still Show On My Credit Report? 3 546 0 2004-02-05
No Credit, Almost Worse Then Bad Credit! 13 845 0 2004-02-04
Newbie, Cjheath Thanks 0 579 0 2004-02-03
Windfall, Pay Off Credit Cards Or Invest? 9 1138 0 2004-02-02
Elminate Or Terminate Unsecured Debt? 1 600 0 2004-02-02
First Post! Credit Card Balance Questions. 0 533 0 2004-02-02
Needing Some Advice Plz 4 646 0 2004-02-01
Foreclosure Sale In 3 Days 3 580 0 2004-02-01
Step By Step 2 640 0 2004-02-27
Financing Land, Is That Feasible? 3 859 0 2004-02-26
Any Big Savings Building Modulars Over Stick-builts? 24 2720 0 2004-02-25
Financing Newly Built Homes? 0 629 0 2004-02-24
N.j Newbie Getting Involved In My First Modular Homes 6 793 0 2004-02-24
Putnam County, FL. 2 580 0 2004-02-23
Utah Comps 3 567 0 2004-02-23
2nd Mortgage On Vacant Land??? 0 502 0 2004-02-23
Vacation Homes 1 630 0 2004-02-23
Hard Money Lender In So. Utah 0 629 0 2004-02-22
Need Advice/opinions On Choosing/purchasing Land And House Building Options. 4 883 0 2004-02-21
Advice As To Finding Serious Investors In The Boston Market In Builing Homes. 1 631 0 2004-02-20
What Do I Do Next?? 6 759 0 2004-02-20
Storage Buildings 3 997 0 2004-02-20
I Want To Tear Down This House 5 822 0 2004-02-19
Steps On Selling Raw Land 6 1278 0 2004-02-19
High-rise Condo 4 652 0 2004-02-19
What Do You Think Of These Numbers? 3 869 0 2004-02-18
Overcoming A Lack Of Age/experience 4 691 0 2004-02-18
Partnering With Contractor On High $ Spec Home 16 1768 0 2004-02-17
Newbie With Questions On Devolpment 1 778 0 2004-02-16
Looking For A Good Builder To Deal With... 0 654 0 2004-02-11
Rental Conversion 5 733 0 2004-02-09
Building My First Home 7 802 0 2004-02-09
Looking To Build A House In Bay Area 5 959 0 2004-02-08
Develop Land In Michigan - Newbie Needs Help! 3 671 0 2004-02-04
Vacant Family Land Confusion?? 2 632 0 2004-02-04
Advertising And Selling My Ifrst Spec Home. 3 754 0 2004-02-01
How To L/O With No $$ Down 2 876 0 2004-02-28
Assign A Lease-Option 10 946 0 2004-02-28
Lease Option A Business? 3 624 0 2004-02-27
What Would Be The Best Option? 3 579 0 2004-02-27
L/O Questions/ Personal Property 0 432 0 2004-02-26
Need Biz Plan Sample 0 588 0 2004-02-26
Lease Option - Tenant Buyers 0 562 0 2004-02-26
Experience With TenantStream? 2 1092 0 2004-02-26
Tenant Stream 8 1417 0 2004-02-26
Can You L/O A 389k Home? 3 605 0 2004-02-26
Who Is Liable 0 431 0 2004-02-26
Lease Option Mortgage Forms 3 696 0 2004-02-25
Clearly Getting Out Of A Deal. 6 907 0 2004-02-25
Possible LO Deal 0 678 0 2004-02-25
Can You Lease A Property On A Lease Option And Then Subrent It To Multiple Renters? 2 629 0 2004-02-25
Whats The Best Direction 5 541 0 2004-02-25
Should I Be A L/O Purchaser In This Deal???? 0 515 0 2004-02-24
Wanted! The Best Ads For Finding Motivated Sellers 5 1094 0 2004-02-24
Lease Option Language 0 496 0 2004-02-24
Lease Option Through A Real Estate Agent 0 582 0 2004-02-24
Lease-option Document 1 784 0 2004-02-24
Real Estate Agent /investor 3 632 0 2004-02-24
LLC 0 543 0 2004-02-24
Lease/Option A Lower Monthly Payment Than Seller Pays Bank 5 694 0 2004-02-24
My First Lease Option Need Help 3 595 0 2004-02-23
Question 5 575 0 2004-02-23
Rent, Lease/option Or Sell???Need Advice BAD!!! 4 681 0 2004-02-23
Don't Have A Clue...HELP Best Course/book For.. 8 644 0 2004-02-22
Opportunity To Get My Feet Wet? 1 586 0 2004-02-21
Showing A Property Prior To Closing 15 1474 0 2004-02-21
Confused About Lease Option Closing 3 738 0 2004-02-20
Newbie Needs HELP!!! 0 513 0 2004-02-19
The ABC Of Renting To Own? 9 1566 0 2004-02-19
Looking To Lease Option Or Wholesale A House In Fairport Ohio 0 497 0 2004-02-19
Am I Ready Or Am I Missing Something? 17 2021 0 2004-02-19
Can I Spend The Option Money? 14 1248 0 2004-02-18
I Need A Property Cash Flow Tool? 5 639 0 2004-02-18
Help.. I Have A L/O Buyer... W/o A L/O Property... 6 752 0 2004-02-17
Real Estate Pro's Only 5 685 0 2004-02-15
Lease To Own Agreements 4 934 0 2004-02-14
Best Day(s) To Place House For Sale Ads? 1 682 0 2004-02-14
What If The Note Holder Dies And You Have The Dee? 1 663 0 2004-02-13
Seller Finance 1 864 0 2004-02-12
Lease Option Title Seasoning 0 547 0 2004-02-12
Paying Capitol Gains On Investment Property Sold 0 882 0 2004-02-11
AD Kessler Mentoring Program? 5 817 0 2004-02-11
Need To Find Proper Paperwork And REI Attorney 2 614 0 2004-02-11
Steal Tenant-buyers From Apartments? 4 659 0 2004-02-08
If I Buy A House For 90k???? 5 778 0 2004-02-08
Profitability Of Lease2purchase Investing In Germany 0 506 0 2004-02-08
Unclear About Subtenant L/O Contract 0 626 0 2004-02-08
Lease Option Strategy 3 877 0 2004-02-07
Getting Paid At Termination Of The Lease 1 846 0 2004-02-07
Just Want To Protect Myself... 0 578 0 2004-02-07
Lease Options 2 800 0 2004-02-07
Lease Option Texas/California? 5 996 0 2004-02-07
How Do I Structure A Lease-option Deal... 2 755 0 2004-02-06
Lease Option Vs Contract For Deed 5 980 0 2004-02-06
Mailing To Soon To Be Expired MLS Listings 2 1060 0 2004-02-06
Pre Forclousure Deal Nead Short Sale Advice 2 751 0 2004-02-06
Atlanta Investors! 1 688 0 2004-02-06
Rehabbing 1 531 0 2004-02-06
Regarding Topics From Earlier Today 1 458 0 2004-02-05
Investors 2 527 0 2004-02-04
How To Make This Work 4 693 0 2004-02-04
Should I Lease / Option From A Couple That Is Divorcing? 9 1005 0 2004-02-04
Closing In On 1st Deal, But May Have Hit A Snag 6 734 0 2004-02-02
Tenant Buyers - Source 3 674 0 2004-02-02
Lease Option 2 Family 2 575 0 2004-02-02
HOA Dues 3 689 0 2004-02-02
Money Needed For Rehab 5 697 0 2004-02-02
Buying OWC Deals - Feedback On This One? 1 505 0 2004-02-01
Evaluating Property Management Companies 2 552 0 2004-02-29
Previous Landlord??? 1 497 0 2004-02-29
Calculating Expenses On Rental Peoperty 3 638 0 2004-02-28
Rental Property Insurance Nightmare 8 1140 0 2004-02-28
HOW MUCH NOTICE? 3 854 0 2004-02-27
Give It A GO, Or Hire A PRO? 7 745 0 2004-02-27
Do You Charge A Renter's Application Fee 11 752 0 2004-02-27
Got A Possible Tenant, Need Some Help Please 7 711 0 2004-02-26
ProForma-nator Says No - Am I Crazy? 5 896 0 2004-02-26
Section 8 Question 6 1035 0 2004-02-25
Maintenance Agreement 4 594 0 2004-02-25
Help Clarify? 7 743 0 2004-02-24
Set Asides For Rental Repairs? 4 939 0 2004-02-24
Best Way To Proceed Next? 2 570 0 2004-02-23
Pets And Renting 5 630 0 2004-02-23
Rental Insurance 11 809 0 2004-02-23
Multiple Single Rental Unit Purchases 8 861 0 2004-02-23
Running The Numbers??? 3 661 0 2004-02-23
Spanish Agreements 3 530 0 2004-02-22
How Do I Figure This Number Out? 11 881 0 2004-02-22
Debt Coverage Ratio: What Is The Range? 3 697 0 2004-02-21
Comments On Foremost For Landlord's Policy? 3 610 0 2004-02-21
License To Manage In CA? 8 554 0 2004-02-19
First Contact With Potential Tenant 6 795 0 2004-02-19
High Vacancy Rates, Falling Rents 8 862 0 2004-02-19
Move Out Procedure 1 563 0 2004-02-19
My First Rental: Now What? 3 766 0 2004-02-19
Rental Property Evaluation!!! 18 2217 0 2004-02-18
Property Management???!!!! 13 999 0 2004-02-17
Purchased A 4 Unit, 2 Units Are Already Rented Do I Need A New Lease Agreement? 8 602 0 2004-02-16
Tenents And Guns 12 774 0 2004-02-16
Spare Key 3 576 0 2004-02-15
Determining Proper Heating Capacity... 0 535 0 2004-02-15
What Is NOI? 2 605 0 2004-02-14
100% LTV HELOC Or Cash Out 1 577 0 2004-02-14
Property Management In Upstate NY 0 514 0 2004-02-14
I Don't Speak Spanish. What Do I Do? 16 1588 0 2004-02-14
Setting Rents By Turnover 3 538 0 2004-02-13
Calif. Lanlord Needs Help Evicting Tenant. 2 593 0 2004-02-13
Cash Or Support Our Troops? 17 1582 0 2004-02-12
Pricing Rental Property 1 739 0 2004-02-12
Section 8 1 688 0 2004-02-12
Fees For Late Rent Payment 3 723 0 2004-02-12
Renter Application Form. 1 695 0 2004-02-11
Bestway To Rent And Rental Contract 1 795 0 2004-02-11
Big Tenant Problem - Help!! 8 945 0 2004-02-11
Section 8 Housing In Metro-Detroit! 1 701 0 2004-02-11
How Do You Figure Cap Rate? 1 730 0 2004-02-11
Buying Rental Properties 1 659 0 2004-02-10
Receipt? 4 714 0 2004-02-10
Is This A Good Idea? 5 742 0 2004-02-10
Negotiable Security Deposit 9 663 0 2004-02-09
My Plan 58 5039 0 2004-02-08
Showing A Rental Unit 9 1378 0 2004-02-05
Help Wanted: Markets For Good Multi-Unit Payout 0 588 0 2004-02-05
Section 8 8 885 0 2004-02-05
Old, Lower Income Rental Units 12 1208 0 2004-02-05
Two Extreme Types Of Rental Properties. 5 662 0 2004-02-05
Need Help Fast--trying To Put A Deal Together! 2 620 0 2004-02-03
How Do You Properly Evaluate A Rental??? 3 928 0 2004-02-03
Landlording And Bankruptcey 1 605 0 2004-02-03
Planning Stage 7 800 0 2004-02-02
Dishwashers In Rentals? 7 771 0 2004-02-01
Capital Gain Taxes 4 801 0 2004-02-29
ANYONE Been Hit With Dealer Status? 2 674 0 2004-02-29
1031 Possible? 7 741 0 2004-02-27
Capital Gains Avoidance 11 919 0 2004-02-27
What Is A 593 Tax Mean 1 691 0 2004-02-27
First Time Home Buyer Do I Pay Tax 1 497 0 2004-02-27
Splitting Excess Land And Residence/ Tax Consequenses 2 584 0 2004-02-26
Tax Implications Of S-corp Vs. LLC 8 1230 0 2004-02-25
What % Is Capital Gain Tax 4 802 0 2004-02-25
Effect Death Has On Rental Property Cost-basis 3 639 0 2004-02-25
Passive Losses Can Only Be Deducted From Passive Income 3 705 0 2004-02-25
Taxes From Sale / Buyer With No Money Down 1 549 0 2004-02-24
Real Estate Professional Status? 1 670 0 2004-02-24
CPA Says No Interest Deduction 38 3578 0 2004-02-24
Rental Capitol Gains 3 768 0 2004-02-24
Any Ways Of Getting Around Capital Gains/Income Tax? 2 589 0 2004-02-23
My "primary-1031-primary" Story 3 727 0 2004-02-22
Capital Gains Taxes? 17 2292 0 2004-02-22
Selling Land To A Related Entity That Will Develop It? 0 747 0 2004-02-22
Question On Capital Gains Rates After Transfer To Trust/LLC 3 988 0 2004-02-20
simultaneous/ double close tax implications???? 12 1170 0 2004-02-19
Partnership To Partner 4 566 0 2004-02-18
LLC Treated As Ab S Or C Corp????? 15 1659 0 2004-02-18
Sch C Vs. Sch E 0 703 0 2004-02-17
CG Taxes On Investment Property 3 551 0 2004-02-17
Contract For Deed 1 695 0 2004-02-17
Capital Gains - Once In A Life Time / Age Limit? 5 696 0 2004-02-16
~ Schedule E Averages~ 4 738 0 2004-02-16
New Furnace 6 750 0 2004-02-15
Is This Allowed? 7 1235 0 2004-02-15
Tax Deduction On A Line Of Credit 2 691 0 2004-02-15
Saving On Capital Gains Taxes 2 599 0 2004-02-14
Deduction Of Assessments 2 525 0 2004-02-14
Depreciation!! 2 756 0 2004-02-13
Rehab Profits Vs. Stock Market Losses 7 1057 0 2004-02-12
Can I Rent Space To My Homebased Business? What Percent? 3 767 0 2004-02-12
Inherited Property And Taxable Gains 1 619 0 2004-02-12
Long/short Capitol Gains Clarification. 1 718 0 2004-02-12
Capital Gains Question 2 646 0 2004-02-12
S Corp Loss Passthrough 2 790 0 2004-02-12
TurboTax For Mac Question 6 653 0 2004-02-12
Form 1065 Not Necessary? 4 530 0 2004-02-11
Don't Know Nothing 'bout No Taxes 0 547 0 2004-02-10
Condo Conversion Tax Implications 0 890 0 2004-02-10
Home Office Deduction 0 574 0 2004-02-10
Can I Deduct Interest Paid If..............> 2 870 0 2004-02-10
Interest Deduction For Rental Property? 1 668 0 2004-02-10
Homeowner's Tax Deductible? 3 727 0 2004-02-10
Long V. Short Term Cap Gains In Calif. 6 613 0 2004-02-10
Low Income Housing Tax Credit!! 2 695 0 2004-02-09
Self-Directed IRA's 15 2279 0 2004-02-09
Help To Avoid Capital Gains? 1 730 0 2004-02-09
Are Property Search Expenses Deductible 16 1836 0 2004-02-09
Owner Financing & Taxes 5 793 0 2004-02-08
Simple IRA/SEP Question 1 673 0 2004-02-07
Sub2 Interest IS Deductible 7 628 0 2004-02-06
Tax Right Off On Failed Investment 1 954 0 2004-02-05
Capital Expenses 1 696 0 2004-02-04
Tax Question 5 848 0 2004-02-03
Trade To Avoid Capitol Gains? 3 790 0 2004-02-03
Schedule C Vs Schedule E For Vacation Rental Property 1 882 0 2004-02-03
Does Voter Regis Determine Primary Residence? 2 577 0 2004-02-02
Tax WRITEOFF On Rental Home 2 803 0 2004-02-02
New Corp - Tax Year 0 559 0 2004-02-02
Taxes On Referral Fees 2 710 0 2004-02-02
Attracting Investors 2 821 0 2004-02-29
SECOND Mortgage 1 835 0 2004-02-29
Heloc 2 883 0 2004-02-27
BUying The Note In Preforelosure?? 2 706 0 2004-02-27
100% LTV Financing 9 1183 0 2004-02-27
Anyone Use Any Web Sources For 100% Mortgages? 5 988 0 2004-02-26
Are Wraps Risky? 2 631 0 2004-02-25
Canadian Looking To Help American Buyers 8 728 0 2004-02-25
Owner Note For DP/40K, I HELOC & Pay In 1 Week? 1 574 0 2004-02-25
Heloc For Profit 10 1006 0 2004-02-24
What Does D/E Mean? 3 745 0 2004-02-24
Moving 1 660 0 2004-02-24
World Lending Group? 13 1884 0 2004-02-22
Going Rate For Pre-approval? 22 2016 0 2004-02-22
I Think This Is Mortgage Fraud 5 802 0 2004-02-21
Licensing 2 621 0 2004-02-21
NOtes, John Behle 4 777 0 2004-02-20
36k Non-performing Note For 6k 6 673 0 2004-02-20
Where Can I Market? 2 591 0 2004-02-20
Creating A Note 2 663 0 2004-02-20
Creative Financing 1 563 0 2004-02-20
AM I CRAZY ?????to Take Back A Second Mort.. 28 1885 0 2004-02-20
Newbie Question....sorry 1 551 0 2004-02-20
Hard Money Lenders? 4 900 0 2004-02-20
Option ARM? Other Solutions? 2 619 0 2004-02-18
Groups Area? 0 512 0 2004-02-18
Flip Financing-title Seasoning Problems From Buyer 's Lender 7 945 0 2004-02-16
Investors Tool 1 963 0 2004-02-16
Owner Carry-back: AITD Or "Subject To" 4 945 0 2004-02-13
Buying Mortgage Notes Directly From Banks On Properties They Are Foreclosing On 1 823 0 2004-02-12
Hard Money Lenders 1 642 0 2004-02-12
Help With Creative Financing In Sacramento. 7 792 0 2004-02-12
How Do You Wirte A Forgiveable Owner Carry Back Note? 6 1202 0 2004-02-11
Investing In A "notes Fund" 0 543 0 2004-02-11
New To The Forum..